Cherry Capital Airport
KTVC : now visible

Airfield :











YOU CAN JOIN US ON...

 
LOGIN :

Register | Disclaimer

   EN    FR    IT 

 









Legend :    VFR   Marginal VFR   IFR   Intensive IFR   Very Intensive IFR
Visi :
Ceiling :
>= 8 km
>= 3000ft
5 to 8 km
1000 to 3000 ft
1500m to 5 km
500 to 1000 ft
800 to 1500m
200 to 500 ft
< 800m
< 200 ft
Symbols :   Thunderstorms  Fog  Heavy snow  Heavy precipitations  Wind > 20 kt






- Airport Elevation : 624 ft
- IATA code : TVC


KTVC - Cherry Capital

CURRENT METAR :
  • 211053Z AUTO 20003KT 10SM CLR M12/M14 A3046 RMK AO2 SLP328 T11171139 $

EXPIRED METARs :
  • 210953Z AUTO 22005KT 10SM CLR M09/M12 A3049 RMK AO2 SLP335 T10891122 $
  • 210853Z AUTO 00000KT 10SM CLR M10/M14 A3050 RMK AO2 SLP340 T11001139 56004 $

TAF KTVC
Valid from the 21 at 12:00 until the 22 at 12:00 UTC


211132Z 2112/2212 23005KT P6SM FEW150
FM211600 25010KT P6SM BKN040
FM211800 24012G20KT P6SM SCT200
FM212300 22010G19KT P6SM SCT250
FM220300 22011G21KT P6SM SCT250 WS020/24040KT



MET'MAP, your aeronautical weather chart ! - Copyright ORBIFLY December 2007 - Disclaimer

ORBIFLY MET'MAP TEAM :

Programming & Development : Alexandra Zaïnal
Concept & original design : Baudouin d'Aumeries
Assistance for programming : Marc-Olivier Méhu
Technical & hardware support : Manuel Goepfert

Contact : metmap@orbifly.com




SOURCES & CREDITS :

   NOAA       Earth
Advisory